Elizabeth Ann — WCZ5348 — position and weather

sailwx.info

Track history (hours):
 
Tides and Currents Weather Stations Pressure Air Temp Water Temp Dewpoint Dewpoint Depression Visibility Wind Speed Wind Dir Waves Ship Positions

Elizabeth Ann

Owner: ATLANTIC GULF TOWING LLC, Chesapeake, VA. More information available from US FCC via Universal Licensing System and Coast Guard Vessel Documentation Center.

Last reported at 2018-Apr-24 08:30 UTC. Time now 2018-Apr-24 08:46 UTC.
Position N 36°45' W 076°18'.

Length 32 m; draft 4 m.

Type: Tug. MMSI: 366773150.

Date/timePositionNaut miles runAvg speedWind from/ knotsBaromVisibWave heightAir tempDewpointWater temp
2018-Apr-24 08:30N 36°45' W 076°18'1 0.1
2018-Apr-24 04:31N 36°45' W 076°18'0 0.0
2018-Apr-24 04:27N 36°45' W 076°18'0 0.0
2018-Apr-24 02:20N 36°45' W 076°18'0 0.0
2018-Apr-23 19:36N 36°45' W 076°18'0 0.3
2018-Apr-23 19:30N 36°45' W 076°18'0 0.0
2018-Apr-23 19:00N 36°45' W 076°18'0 0.0
2018-Apr-23 18:30N 36°45' W 076°18'0 0.0
2018-Apr-23 18:00N 36°45' W 076°18'0 0.0
2018-Apr-23 17:30N 36°45' W 076°18'0 0.0
2018-Apr-23 17:00N 36°45' W 076°18'0 0.0
2018-Apr-23 16:30N 36°45' W 076°18'0 0.0
2018-Apr-23 16:00N 36°45' W 076°18'0 0.0
2018-Apr-23 15:30N 36°45' W 076°18'0 0.0
2018-Apr-23 15:00N 36°45' W 076°18'0 0.0
2018-Apr-23 14:30N 36°45' W 076°18'0 0.0
2018-Apr-23 14:00N 36°45' W 076°18'0 0.0
2018-Apr-23 13:30N 36°45' W 076°18'0 0.0
2018-Apr-23 13:00N 36°45' W 076°18'0 0.0
2018-Apr-23 12:30N 36°45' W 076°18'0 0.0
2018-Apr-23 12:00N 36°45' W 076°18'0 0.0
2018-Apr-23 11:30N 36°45' W 076°18'0 0.0
2018-Apr-23 11:00N 36°45' W 076°18'0 0.0
2018-Apr-23 10:30N 36°45' W 076°18'0 0.0
2018-Apr-23 10:00N 36°45' W 076°18'0 0.0
2018-Apr-23 09:30N 36°45' W 076°18'0 0.0
2018-Apr-23 09:00N 36°45' W 076°18'0 0.0
2018-Apr-23 08:30N 36°45' W 076°18'0 0.0
2018-Apr-23 08:00N 36°45' W 076°18'0 0.0
2018-Apr-23 07:30N 36°45' W 076°18'0 0.0
2018-Apr-23 07:00N 36°45' W 076°18'0 0.0
2018-Apr-23 06:30N 36°45' W 076°18'0 0.0
2018-Apr-23 06:00N 36°45' W 076°18'0 0.0
2018-Apr-23 05:30N 36°45' W 076°18'0 0.0
2018-Apr-23 05:00N 36°45' W 076°18'0 0.0
2018-Apr-23 04:30N 36°45' W 076°18'0 0.0
2018-Apr-23 04:00N 36°45' W 076°18'0 0.0
2018-Apr-23 03:30N 36°45' W 076°18'0 0.0
2018-Apr-23 03:00N 36°45' W 076°18'0 0.0
2018-Apr-23 02:30N 36°45' W 076°18'0 0.0
2018-Apr-23 02:00N 36°45' W 076°18'0 0.0
2018-Apr-23 01:30N 36°45' W 076°18'0 0.0
2018-Apr-23 01:00N 36°45' W 076°18'0 0.0
2018-Apr-23 00:30N 36°45' W 076°18'0 0.0
2018-Apr-23 00:00N 36°45' W 076°18'0 0.0
2018-Apr-22 23:29N 36°45' W 076°18'0 0.0
2018-Apr-22 23:00N 36°45' W 076°18'0 0.0
2018-Apr-22 22:30N 36°45' W 076°18'0 0.0
2018-Apr-22 22:00N 36°45' W 076°18'0 0.0
2018-Apr-22 21:30N 36°45' W 076°18'0 0.0
2018-Apr-22 21:00N 36°45' W 076°18'0 0.0
2018-Apr-22 20:30N 36°45' W 076°18'0 0.0
2018-Apr-22 20:00N 36°45' W 076°18'0 0.0
2018-Apr-22 19:30N 36°45' W 076°18'0 0.0
2018-Apr-22 19:00N 36°45' W 076°18'0 0.0
2018-Apr-22 18:30N 36°45' W 076°18'1 2.8
2018-Apr-22 18:00N 36°46' W 076°18'2 4.3
2018-Apr-22 17:30N 36°48' W 076°18'2 4.8
2018-Apr-22 17:00N 36°50' W 076°17'0 0.3
2018-Apr-22 16:08N 36°50' W 076°17'0 0.0
2018-Apr-22 15:58N 36°50' W 076°17'0 0.0
2018-Apr-22 15:30N 36°50' W 076°17'0 0.0
2018-Apr-22 14:52N 36°50' W 076°17'0 0.0
2018-Apr-22 14:30N 36°50' W 076°17'2 4.7
2018-Apr-22 14:00N 36°52' W 076°19'11 6.0
2018-Apr-22 12:12N 36°59' W 076°10'3 8.9
2018-Apr-22 11:54N 36°59' W 076°07'4 8.9
2018-Apr-22 11:30N 36°57' W 076°02'5 8.9
2018-Apr-22 10:59N 36°55' W 075°57'  
2018-Apr-19 03:52N 27°04' W 080°03'410.7
2018-Apr-19 03:30N 27°01' W 080°02'510.9
2018-Apr-19 03:00N 26°55' W 080°01'2410.9
2018-Apr-19 00:47N 26°31' W 080°01'311.7
2018-Apr-19 00:30N 26°28' W 080°01'611.6
2018-Apr-19 00:00N 26°22' W 080°02'611.5
2018-Apr-18 23:30N 26°17' W 080°02'510.8
2018-Apr-18 23:00N 26°11' W 080°03'611.2
2018-Apr-18 22:29N 26°05' W 080°03'611.8
2018-Apr-18 21:59N 25°59' W 080°04'613.3
2018-Apr-18 21:31N 25°53' W 080°04'714.0
2018-Apr-18 21:01N 25°46' W 080°04'714.0
2018-Apr-18 20:30N 25°39' W 080°04'713.8
2018-Apr-18 20:00N 25°32' W 080°04'186 4.9
2018-Apr-17 05:50N 27°42' W 082°33'3 9.2
2018-Apr-17 05:30N 27°44' W 082°32'4 7.4
2018-Apr-17 04:54N 27°48' W 082°34'3 8.2
2018-Apr-17 04:30N 27°51' W 082°33'2 4.5
2018-Apr-17 04:00N 27°53' W 082°32'0 0.0
2018-Apr-17 03:29N 27°53' W 082°32'0 0.0
2018-Apr-17 03:00N 27°53' W 082°32'0 0.0
2018-Apr-17 02:30N 27°53' W 082°32'0 0.0
2018-Apr-17 02:00N 27°53' W 082°32'0 0.0
2018-Apr-17 01:30N 27°53' W 082°32'0 0.0
2018-Apr-17 01:00N 27°53' W 082°32'0 0.0
2018-Apr-17 00:30N 27°53' W 082°32'0 0.0
2018-Apr-17 00:00N 27°53' W 082°32'0 0.0
2018-Apr-16 23:30N 27°53' W 082°32'0 0.0
2018-Apr-16 23:00N 27°53' W 082°32'0 0.0
2018-Apr-16 22:30N 27°53' W 082°32'0 0.0
2018-Apr-16 22:00N 27°53' W 082°32'0 0.0
2018-Apr-16 21:30N 27°53' W 082°32'0 0.0
2018-Apr-16 21:00N 27°53' W 082°32'0 0.0
2018-Apr-16 20:30N 27°53' W 082°32'0 0.0
2018-Apr-16 20:00N 27°53' W 082°32'0 0.0
2018-Apr-16 19:30N 27°53' W 082°32'0 0.0
2018-Apr-16 19:00N 27°53' W 082°32'0 0.0
2018-Apr-16 18:30N 27°53' W 082°32'0 0.0
2018-Apr-16 18:00N 27°53' W 082°32'0 0.0
2018-Apr-16 17:30N 27°53' W 082°32'0 0.0
2018-Apr-16 17:00N 27°53' W 082°32'0 0.0
2018-Apr-16 16:30N 27°53' W 082°32'0 0.0
2018-Apr-16 16:00N 27°53' W 082°32'0 0.0
2018-Apr-16 15:30N 27°53' W 082°32'0 0.0
2018-Apr-16 15:00N 27°53' W 082°32'0 0.0
2018-Apr-16 14:27N 27°53' W 082°32'0 0.1
2018-Apr-16 14:00N 27°53' W 082°32'0 0.0
2018-Apr-16 13:30N 27°53' W 082°32'0 0.0
2018-Apr-16 13:00N 27°53' W 082°32'0 0.0
2018-Apr-16 12:30N 27°53' W 082°32'0 0.0
2018-Apr-16 12:00N 27°53' W 082°32'0 0.0
2018-Apr-16 11:30N 27°53' W 082°32'0 0.0
2018-Apr-16 11:00N 27°53' W 082°32'0 0.0
2018-Apr-16 10:30N 27°53' W 082°32'0 0.0
2018-Apr-16 10:00N 27°53' W 082°32'0 0.0
2018-Apr-16 09:30N 27°53' W 082°32'0 0.0
2018-Apr-16 09:00N 27°53' W 082°32'0 0.0
2018-Apr-16 08:30N 27°53' W 082°32'0 0.0
2018-Apr-16 08:00N 27°53' W 082°32'0 0.0
2018-Apr-16 07:30N 27°53' W 082°32'0 0.0
2018-Apr-16 07:00N 27°53' W 082°32'0 0.0
2018-Apr-16 06:30N 27°53' W 082°32'0 0.0
2018-Apr-16 06:00N 27°53' W 082°32'0 0.0
2018-Apr-16 05:30N 27°53' W 082°32'0 0.0
2018-Apr-16 05:00N 27°53' W 082°32'0 0.0
2018-Apr-16 04:30N 27°53' W 082°32'0 0.0
2018-Apr-16 04:00N 27°53' W 082°32'0 0.0
2018-Apr-16 03:30N 27°53' W 082°32'0 0.0
2018-Apr-16 03:00N 27°53' W 082°32'0 0.0
2018-Apr-16 02:30N 27°53' W 082°32'0 0.0
2018-Apr-16 02:00N 27°53' W 082°32'0 0.0
2018-Apr-16 01:30N 27°53' W 082°32'0 0.0
2018-Apr-16 01:00N 27°53' W 082°32'0 0.0
2018-Apr-16 00:30N 27°53' W 082°32'0 0.0
2018-Apr-16 00:00N 27°53' W 082°32'0 0.0
2018-Apr-15 23:30N 27°53' W 082°32'0 0.0
2018-Apr-15 23:00N 27°53' W 082°32'0 0.0
2018-Apr-15 22:30N 27°53' W 082°32'0 0.0
2018-Apr-15 22:00N 27°53' W 082°32'0 0.0
2018-Apr-15 21:30N 27°53' W 082°32'0 0.0
2018-Apr-15 21:00N 27°53' W 082°32'0 0.0
2018-Apr-15 20:30N 27°53' W 082°32'0 0.0
2018-Apr-15 20:00N 27°53' W 082°32'0 0.0
2018-Apr-15 19:30N 27°53' W 082°32'0 0.0
2018-Apr-15 19:00N 27°53' W 082°32'0 0.0
2018-Apr-15 18:30N 27°53' W 082°32'0 0.0
2018-Apr-15 18:00N 27°53' W 082°32'0 0.0
2018-Apr-15 17:30N 27°53' W 082°32'0 0.0
2018-Apr-15 17:00N 27°53' W 082°32'0 0.0
2018-Apr-15 16:30N 27°53' W 082°32'0 0.0
2018-Apr-15 16:00N 27°53' W 082°32'0 0.0
2018-Apr-15 15:30N 27°53' W 082°32'0 0.0
2018-Apr-15 14:59N 27°53' W 082°32'0 0.0
2018-Apr-15 14:28N 27°53' W 082°32'0 0.0
2018-Apr-15 14:00N 27°53' W 082°32'0 0.0
2018-Apr-15 13:30N 27°53' W 082°32'0 0.0
2018-Apr-15 13:00N 27°53' W 082°32'0 0.0
2018-Apr-15 12:30N 27°53' W 082°32'0 0.0
2018-Apr-15 11:58N 27°53' W 082°32'0 0.0
2018-Apr-15 11:29N 27°53' W 082°32'0 0.0
2018-Apr-15 11:00N 27°53' W 082°32'0 0.0
2018-Apr-15 10:30N 27°53' W 082°32'0 0.0
2018-Apr-15 10:00N 27°53' W 082°32'0 0.0
2018-Apr-15 09:30N 27°53' W 082°32'0 0.0
2018-Apr-15 09:00N 27°53' W 082°32'0 0.0
2018-Apr-15 08:30N 27°53' W 082°32'0 0.0
2018-Apr-15 08:00N 27°53' W 082°32'0 0.0
2018-Apr-15 07:30N 27°53' W 082°32'0 0.0
2018-Apr-15 07:00N 27°53' W 082°32'0 0.0
2018-Apr-15 06:30N 27°53' W 082°32'1 1.5
2018-Apr-15 06:00N 27°53' W 082°33'2 4.9
2018-Apr-15 05:30N 27°50' W 082°34'3 5.5
2018-Apr-15 04:57N 27°47' W 082°33'2 5.3
2018-Apr-15 04:30N 27°46' W 082°31'4 7.1
2018-Apr-15 03:59N 27°42' W 082°33'15 6.3
2018-Apr-15 01:32N 27°37' W 082°49'0 6.2
2018-Apr-15 01:28N 27°37' W 082°50'3 6.1
2018-Apr-15 01:00N 27°36' W 082°53'  
Track history (hours):
 
Tides and Currents Weather Stations Pressure Air Temp Water Temp Dewpoint Dewpoint Depression Visibility Wind Speed Wind Dir Waves Ship Positions

Elizabeth Ann

Owner: ATLANTIC GULF TOWING LLC, Chesapeake, VA. More information available from US FCC via Universal Licensing System and Coast Guard Vessel Documentation Center.

Last reported at 2018-Apr-24 08:30 UTC. Time now 2018-Apr-24 08:46 UTC.
Position N 36°45' W 076°18'.

Length 32 m; draft 4 m.

Type: Tug. MMSI: 366773150.

Date/timePositionNaut miles runAvg speedWind from/ knotsBaromVisibWave heightAir tempDewpointWater temp
2018-Apr-24 08:30N 36°45' W 076°18'1 0.1
2018-Apr-24 04:31N 36°45' W 076°18'0 0.0
2018-Apr-24 04:27N 36°45' W 076°18'0 0.0
2018-Apr-24 02:20N 36°45' W 076°18'0 0.0
2018-Apr-23 19:36N 36°45' W 076°18'0 0.3
2018-Apr-23 19:30N 36°45' W 076°18'0 0.0
2018-Apr-23 19:00N 36°45' W 076°18'0 0.0
2018-Apr-23 18:30N 36°45' W 076°18'0 0.0
2018-Apr-23 18:00N 36°45' W 076°18'0 0.0
2018-Apr-23 17:30N 36°45' W 076°18'0 0.0
2018-Apr-23 17:00N 36°45' W 076°18'0 0.0
2018-Apr-23 16:30N 36°45' W 076°18'0 0.0
2018-Apr-23 16:00N 36°45' W 076°18'0 0.0
2018-Apr-23 15:30N 36°45' W 076°18'0 0.0
2018-Apr-23 15:00N 36°45' W 076°18'0 0.0
2018-Apr-23 14:30N 36°45' W 076°18'0 0.0
2018-Apr-23 14:00N 36°45' W 076°18'0 0.0
2018-Apr-23 13:30N 36°45' W 076°18'0 0.0
2018-Apr-23 13:00N 36°45' W 076°18'0 0.0
2018-Apr-23 12:30N 36°45' W 076°18'0 0.0
2018-Apr-23 12:00N 36°45' W 076°18'0 0.0
2018-Apr-23 11:30N 36°45' W 076°18'0 0.0
2018-Apr-23 11:00N 36°45' W 076°18'0 0.0
2018-Apr-23 10:30N 36°45' W 076°18'0 0.0
2018-Apr-23 10:00N 36°45' W 076°18'0 0.0
2018-Apr-23 09:30N 36°45' W 076°18'0 0.0
2018-Apr-23 09:00N 36°45' W 076°18'0 0.0
2018-Apr-23 08:30N 36°45' W 076°18'0 0.0
2018-Apr-23 08:00N 36°45' W 076°18'0 0.0
2018-Apr-23 07:30N 36°45' W 076°18'0 0.0
2018-Apr-23 07:00N 36°45' W 076°18'0 0.0
2018-Apr-23 06:30N 36°45' W 076°18'0 0.0
2018-Apr-23 06:00N 36°45' W 076°18'0 0.0
2018-Apr-23 05:30N 36°45' W 076°18'0 0.0
2018-Apr-23 05:00N 36°45' W 076°18'0 0.0
2018-Apr-23 04:30N 36°45' W 076°18'0 0.0
2018-Apr-23 04:00N 36°45' W 076°18'0 0.0
2018-Apr-23 03:30N 36°45' W 076°18'0 0.0
2018-Apr-23 03:00N 36°45' W 076°18'0 0.0
2018-Apr-23 02:30N 36°45' W 076°18'0 0.0
2018-Apr-23 02:00N 36°45' W 076°18'0 0.0
2018-Apr-23 01:30N 36°45' W 076°18'0 0.0
2018-Apr-23 01:00N 36°45' W 076°18'0 0.0
2018-Apr-23 00:30N 36°45' W 076°18'0 0.0
2018-Apr-23 00:00N 36°45' W 076°18'0 0.0
2018-Apr-22 23:29N 36°45' W 076°18'0 0.0
2018-Apr-22 23:00N 36°45' W 076°18'0 0.0
2018-Apr-22 22:30N 36°45' W 076°18'0 0.0
2018-Apr-22 22:00N 36°45' W 076°18'0 0.0
2018-Apr-22 21:30N 36°45' W 076°18'0 0.0
2018-Apr-22 21:00N 36°45' W 076°18'0 0.0
2018-Apr-22 20:30N 36°45' W 076°18'0 0.0
2018-Apr-22 20:00N 36°45' W 076°18'0 0.0
2018-Apr-22 19:30N 36°45' W 076°18'0 0.0
2018-Apr-22 19:00N 36°45' W 076°18'0 0.0
2018-Apr-22 18:30N 36°45' W 076°18'1 2.8
2018-Apr-22 18:00N 36°46' W 076°18'2 4.3
2018-Apr-22 17:30N 36°48' W 076°18'2 4.8
2018-Apr-22 17:00N 36°50' W 076°17'0 0.3
2018-Apr-22 16:08N 36°50' W 076°17'0 0.0
2018-Apr-22 15:58N 36°50' W 076°17'0 0.0
2018-Apr-22 15:30N 36°50' W 076°17'0 0.0
2018-Apr-22 14:52N 36°50' W 076°17'0 0.0
2018-Apr-22 14:30N 36°50' W 076°17'2 4.7
2018-Apr-22 14:00N 36°52' W 076°19'11 6.0
2018-Apr-22 12:12N 36°59' W 076°10'3 8.9
2018-Apr-22 11:54N 36°59' W 076°07'4 8.9
2018-Apr-22 11:30N 36°57' W 076°02'5 8.9
2018-Apr-22 10:59N 36°55' W 075°57'  
2018-Apr-19 03:52N 27°04' W 080°03'410.7
2018-Apr-19 03:30N 27°01' W 080°02'510.9
2018-Apr-19 03:00N 26°55' W 080°01'2410.9
2018-Apr-19 00:47N 26°31' W 080°01'311.7
2018-Apr-19 00:30N 26°28' W 080°01'611.6
2018-Apr-19 00:00N 26°22' W 080°02'611.5
2018-Apr-18 23:30N 26°17' W 080°02'510.8
2018-Apr-18 23:00N 26°11' W 080°03'611.2
2018-Apr-18 22:29N 26°05' W 080°03'611.8
2018-Apr-18 21:59N 25°59' W 080°04'613.3
2018-Apr-18 21:31N 25°53' W 080°04'714.0
2018-Apr-18 21:01N 25°46' W 080°04'714.0
2018-Apr-18 20:30N 25°39' W 080°04'713.8
2018-Apr-18 20:00N 25°32' W 080°04'186 4.9
2018-Apr-17 05:50N 27°42' W 082°33'3 9.2
2018-Apr-17 05:30N 27°44' W 082°32'4 7.4
2018-Apr-17 04:54N 27°48' W 082°34'3 8.2
2018-Apr-17 04:30N 27°51' W 082°33'2 4.5
2018-Apr-17 04:00N 27°53' W 082°32'0 0.0
2018-Apr-17 03:29N 27°53' W 082°32'0 0.0
2018-Apr-17 03:00N 27°53' W 082°32'0 0.0
2018-Apr-17 02:30N 27°53' W 082°32'0 0.0
2018-Apr-17 02:00N 27°53' W 082°32'0 0.0
2018-Apr-17 01:30N 27°53' W 082°32'0 0.0
2018-Apr-17 01:00N 27°53' W 082°32'0 0.0
2018-Apr-17 00:30N 27°53' W 082°32'0 0.0
2018-Apr-17 00:00N 27°53' W 082°32'0 0.0
2018-Apr-16 23:30N 27°53' W 082°32'0 0.0
2018-Apr-16 23:00N 27°53' W 082°32'0 0.0
2018-Apr-16 22:30N 27°53' W 082°32'0 0.0
2018-Apr-16 22:00N 27°53' W 082°32'0 0.0
2018-Apr-16 21:30N 27°53' W 082°32'0 0.0
2018-Apr-16 21:00N 27°53' W 082°32'0 0.0
2018-Apr-16 20:30N 27°53' W 082°32'0 0.0
2018-Apr-16 20:00N 27°53' W 082°32'0 0.0
2018-Apr-16 19:30N 27°53' W 082°32'0 0.0
2018-Apr-16 19:00N 27°53' W 082°32'0 0.0
2018-Apr-16 18:30N 27°53' W 082°32'0 0.0
2018-Apr-16 18:00N 27°53' W 082°32'0 0.0
2018-Apr-16 17:30N 27°53' W 082°32'0 0.0
2018-Apr-16 17:00N 27°53' W 082°32'0 0.0
2018-Apr-16 16:30N 27°53' W 082°32'0 0.0
2018-Apr-16 16:00N 27°53' W 082°32'0 0.0
2018-Apr-16 15:30N 27°53' W 082°32'0 0.0
2018-Apr-16 15:00N 27°53' W 082°32'0 0.0
2018-Apr-16 14:27N 27°53' W 082°32'0 0.1
2018-Apr-16 14:00N 27°53' W 082°32'0 0.0
2018-Apr-16 13:30N 27°53' W 082°32'0 0.0
2018-Apr-16 13:00N 27°53' W 082°32'0 0.0
2018-Apr-16 12:30N 27°53' W 082°32'0 0.0
2018-Apr-16 12:00N 27°53' W 082°32'0 0.0
2018-Apr-16 11:30N 27°53' W 082°32'0 0.0
2018-Apr-16 11:00N 27°53' W 082°32'0 0.0
2018-Apr-16 10:30N 27°53' W 082°32'0 0.0
2018-Apr-16 10:00N 27°53' W 082°32'0 0.0
2018-Apr-16 09:30N 27°53' W 082°32'0 0.0
2018-Apr-16 09:00N 27°53' W 082°32'0 0.0
2018-Apr-16 08:30N 27°53' W 082°32'0 0.0
2018-Apr-16 08:00N 27°53' W 082°32'0 0.0
2018-Apr-16 07:30N 27°53' W 082°32'0 0.0
2018-Apr-16 07:00N 27°53' W 082°32'0 0.0
2018-Apr-16 06:30N 27°53' W 082°32'0 0.0
2018-Apr-16 06:00N 27°53' W 082°32'0 0.0
2018-Apr-16 05:30N 27°53' W 082°32'0 0.0
2018-Apr-16 05:00N 27°53' W 082°32'0 0.0
2018-Apr-16 04:30N 27°53' W 082°32'0 0.0
2018-Apr-16 04:00N 27°53' W 082°32'0 0.0
2018-Apr-16 03:30N 27°53' W 082°32'0 0.0
2018-Apr-16 03:00N 27°53' W 082°32'0 0.0
2018-Apr-16 02:30N 27°53' W 082°32'0 0.0
2018-Apr-16 02:00N 27°53' W 082°32'0 0.0
2018-Apr-16 01:30N 27°53' W 082°32'0 0.0
2018-Apr-16 01:00N 27°53' W 082°32'0 0.0
2018-Apr-16 00:30N 27°53' W 082°32'0 0.0
2018-Apr-16 00:00N 27°53' W 082°32'0 0.0
2018-Apr-15 23:30N 27°53' W 082°32'0 0.0
2018-Apr-15 23:00N 27°53' W 082°32'0 0.0
2018-Apr-15 22:30N 27°53' W 082°32'0 0.0
2018-Apr-15 22:00N 27°53' W 082°32'0 0.0
2018-Apr-15 21:30N 27°53' W 082°32'0 0.0
2018-Apr-15 21:00N 27°53' W 082°32'0 0.0
2018-Apr-15 20:30N 27°53' W 082°32'0 0.0
2018-Apr-15 20:00N 27°53' W 082°32'0 0.0
2018-Apr-15 19:30N 27°53' W 082°32'0 0.0
2018-Apr-15 19:00N 27°53' W 082°32'0 0.0
2018-Apr-15 18:30N 27°53' W 082°32'0 0.0
2018-Apr-15 18:00N 27°53' W 082°32'0 0.0
2018-Apr-15 17:30N 27°53' W 082°32'0 0.0
2018-Apr-15 17:00N 27°53' W 082°32'0 0.0
2018-Apr-15 16:30N 27°53' W 082°32'0 0.0
2018-Apr-15 16:00N 27°53' W 082°32'0 0.0
2018-Apr-15 15:30N 27°53' W 082°32'0 0.0
2018-Apr-15 14:59N 27°53' W 082°32'0 0.0
2018-Apr-15 14:28N 27°53' W 082°32'0 0.0
2018-Apr-15 14:00N 27°53' W 082°32'0 0.0
2018-Apr-15 13:30N 27°53' W 082°32'0 0.0
2018-Apr-15 13:00N 27°53' W 082°32'0 0.0
2018-Apr-15 12:30N 27°53' W 082°32'0 0.0
2018-Apr-15 11:58N 27°53' W 082°32'0 0.0
2018-Apr-15 11:29N 27°53' W 082°32'0 0.0
2018-Apr-15 11:00N 27°53' W 082°32'0 0.0
2018-Apr-15 10:30N 27°53' W 082°32'0 0.0
2018-Apr-15 10:00N 27°53' W 082°32'0 0.0
2018-Apr-15 09:30N 27°53' W 082°32'0 0.0
2018-Apr-15 09:00N 27°53' W 082°32'0 0.0
2018-Apr-15 08:30N 27°53' W 082°32'0 0.0
2018-Apr-15 08:00N 27°53' W 082°32'0 0.0
2018-Apr-15 07:30N 27°53' W 082°32'0 0.0
2018-Apr-15 07:00N 27°53' W 082°32'0 0.0
2018-Apr-15 06:30N 27°53' W 082°32'1 1.5
2018-Apr-15 06:00N 27°53' W 082°33'2 4.9
2018-Apr-15 05:30N 27°50' W 082°34'3 5.5
2018-Apr-15 04:57N 27°47' W 082°33'2 5.3
2018-Apr-15 04:30N 27°46' W 082°31'4 7.1
2018-Apr-15 03:59N 27°42' W 082°33'15 6.3
2018-Apr-15 01:32N 27°37' W 082°49'0 6.2
2018-Apr-15 01:28N 27°37' W 082°50'3 6.1
2018-Apr-15 01:00N 27°36' W 082°53'  

Dump ship's entire track history